createdAt,value
2022-10-18T00:07:24.000Z,18.65
2022-10-18T00:12:25.000Z,18.15
2022-10-18T00:17:24.000Z,18.5
2022-10-18T00:22:25.000Z,18.07
2022-10-18T00:27:25.000Z,17.49
2022-10-18T00:32:25.000Z,17.3
2022-10-18T00:37:24.000Z,16.83
2022-10-18T00:42:24.000Z,16.06
2022-10-18T00:47:24.000Z,16.26
2022-10-18T00:52:25.000Z,15.45
2022-10-18T00:57:24.000Z,15.77
2022-10-18T01:02:25.000Z,15.34
2022-10-18T01:07:24.000Z,15.25
2022-10-18T01:12:24.000Z,15.49
2022-10-18T01:17:24.000Z,16.06
2022-10-18T01:22:25.000Z,16.23
2022-10-18T01:27:25.000Z,17.87
2022-10-18T01:32:25.000Z,20.26
2022-10-18T01:37:24.000Z,21.08
2022-10-18T01:42:24.000Z,21.81
2022-10-18T01:47:25.000Z,23.51
2022-10-18T01:52:24.000Z,27.05
2022-10-18T01:57:24.000Z,26.55
2022-10-18T02:02:24.000Z,24.56
2022-10-18T02:07:24.000Z,24.69
2022-10-18T02:12:24.000Z,23.68
2022-10-18T02:17:24.000Z,21.68
2022-10-18T02:22:24.000Z,21.09
2022-10-18T02:27:25.000Z,20.86
2022-10-18T02:32:24.000Z,20.8
2022-10-18T02:42:24.000Z,19.66
2022-10-18T02:47:25.000Z,19.52
2022-10-18T02:52:24.000Z,20.59
2022-10-18T02:57:24.000Z,21.26
2022-10-18T03:02:25.000Z,21.34
2022-10-18T03:07:24.000Z,19.92
2022-10-18T03:12:25.000Z,19.22
2022-10-18T03:17:24.000Z,18.18
2022-10-18T03:22:25.000Z,17.22
2022-10-18T03:27:24.000Z,16.32
2022-10-18T03:32:25.000Z,15.5
2022-10-18T03:37:24.000Z,15.31
2022-10-18T03:42:24.000Z,15.14
2022-10-18T03:47:24.000Z,14.44
2022-10-18T03:52:24.000Z,14.94
2022-10-18T03:57:24.000Z,15.08
2022-10-18T04:02:25.000Z,14.88
2022-10-18T04:12:24.000Z,15.62
2022-10-18T04:17:25.000Z,15.21
2022-10-18T04:22:24.000Z,15.06
2022-10-18T04:27:25.000Z,15
2022-10-18T04:32:24.000Z,15.67
2022-10-18T04:37:25.000Z,15.23
2022-10-18T04:42:24.000Z,15.28
2022-10-18T04:47:24.000Z,14.88
2022-10-18T04:52:24.000Z,15.33
2022-10-18T04:57:24.000Z,15.43
2022-10-18T05:02:24.000Z,15.51
2022-10-18T05:07:25.000Z,16.07
2022-10-18T05:12:24.000Z,16.42
2022-10-18T05:17:24.000Z,15.9
2022-10-18T05:22:25.000Z,16.56
2022-10-18T05:27:25.000Z,16.28
2022-10-18T05:32:24.000Z,16.6
2022-10-18T05:37:24.000Z,17.48
2022-10-18T05:42:25.000Z,17.28
2022-10-18T05:47:25.000Z,18.04
2022-10-18T05:52:24.000Z,19.9
2022-10-18T05:57:23.000Z,19.87
2022-10-18T06:02:25.000Z,21.17
2022-10-18T06:07:25.000Z,20.85
2022-10-18T06:12:25.000Z,21.09
2022-10-18T06:17:25.000Z,23
2022-10-18T06:22:25.000Z,22.27
2022-10-18T06:27:24.000Z,21.59
2022-10-18T06:37:24.000Z,21.42
2022-10-18T06:42:24.000Z,21.05
2022-10-18T06:47:24.000Z,21.68
2022-10-18T06:52:24.000Z,21.03
2022-10-18T06:57:25.000Z,20.87
2022-10-18T07:02:24.000Z,21.33
2022-10-18T07:07:25.000Z,21.79
2022-10-18T07:12:24.000Z,21.86
2022-10-18T07:17:24.000Z,21.36
2022-10-18T07:22:25.000Z,20.69
2022-10-18T07:27:25.000Z,20.08
2022-10-18T07:32:24.000Z,19.31
2022-10-18T07:37:25.000Z,19.69
2022-10-18T07:42:25.000Z,19.85
2022-10-18T07:47:24.000Z,19.83
2022-10-18T07:52:24.000Z,21.01
2022-10-18T07:57:24.000Z,21.07
2022-10-18T08:07:24.000Z,20.59
2022-10-18T08:12:24.000Z,19.5
2022-10-18T08:17:25.000Z,18.94
2022-10-18T08:22:24.000Z,18.22
2022-10-18T08:27:24.000Z,18.19
2022-10-18T08:32:24.000Z,18.03
2022-10-18T08:37:24.000Z,19.2
2022-10-18T08:42:24.000Z,20.7
2022-10-18T08:47:24.000Z,20.27
2022-10-18T08:52:25.000Z,19.86
2022-10-18T08:57:24.000Z,18.54
2022-10-18T09:02:24.000Z,17.97
2022-10-18T09:07:24.000Z,17.93
2022-10-18T09:12:24.000Z,17.08
2022-10-18T09:17:25.000Z,16.74
2022-10-18T09:22:24.000Z,16.94
2022-10-18T09:27:24.000Z,16.61
2022-10-18T09:32:24.000Z,16.64
2022-10-18T09:37:24.000Z,17.12
2022-10-18T09:42:25.000Z,16.4
2022-10-18T09:47:24.000Z,15.39
2022-10-18T09:52:24.000Z,14.76
2022-10-18T09:57:25.000Z,14.48
2022-10-18T10:02:24.000Z,14.27
2022-10-18T10:07:24.000Z,14.46
2022-10-18T10:12:25.000Z,14.11
2022-10-18T10:17:24.000Z,14.01
2022-10-18T10:22:25.000Z,12.9
2022-10-18T10:27:24.000Z,12.63
2022-10-18T10:32:24.000Z,12.32
2022-10-18T10:37:24.000Z,12.61
2022-10-18T10:42:24.000Z,13.18
2022-10-18T10:47:25.000Z,13.21
2022-10-18T10:52:24.000Z,13.5
2022-10-18T10:57:24.000Z,13.58
2022-10-18T11:02:24.000Z,13.43
2022-10-18T11:07:24.000Z,14.11
2022-10-18T11:12:24.000Z,13.86
2022-10-18T11:17:24.000Z,13.48
2022-10-18T11:22:24.000Z,14.05
2022-10-18T11:27:24.000Z,15.73
2022-10-18T11:32:25.000Z,18.35
2022-10-18T11:37:24.000Z,16.94
2022-10-18T11:42:25.000Z,16.03
2022-10-18T11:47:25.000Z,16.12
2022-10-18T11:52:24.000Z,16.99
2022-10-18T11:57:25.000Z,17.93
2022-10-18T12:02:25.000Z,19.32
2022-10-18T12:07:24.000Z,20.3
2022-10-18T12:12:24.000Z,21.29
2022-10-18T12:17:24.000Z,21.11
2022-10-18T12:22:24.000Z,21.65
2022-10-18T12:27:24.000Z,24.84
2022-10-18T12:32:25.000Z,25.67
2022-10-18T12:37:24.000Z,24.21
2022-10-18T12:42:25.000Z,22.03
2022-10-18T12:47:24.000Z,21.47
2022-10-18T12:52:24.000Z,19.84
2022-10-18T12:57:25.000Z,18.52
2022-10-18T13:02:24.000Z,18.1
2022-10-18T13:07:24.000Z,15.34
2022-10-18T13:12:24.000Z,14.47
2022-10-18T13:17:24.000Z,12.65
2022-10-18T13:22:24.000Z,10.95
2022-10-18T13:32:24.000Z,9.94
2022-10-18T13:37:24.000Z,9.87
2022-10-18T13:42:25.000Z,10.02
2022-10-18T13:47:24.000Z,9.31
2022-10-18T13:52:24.000Z,9.39
2022-10-18T13:57:24.000Z,9.02
2022-10-18T14:02:25.000Z,8.64
2022-10-18T14:07:25.000Z,8.3
2022-10-18T14:12:24.000Z,7.21
2022-10-18T14:17:25.000Z,6.48
2022-10-18T14:22:24.000Z,6.07
2022-10-18T14:27:24.000Z,5.61
2022-10-18T14:32:25.000Z,5.53
2022-10-18T14:37:25.000Z,5.67
2022-10-18T14:42:24.000Z,5.51
2022-10-18T14:47:25.000Z,5.38
2022-10-18T14:52:24.000Z,5.36
2022-10-18T14:57:24.000Z,5.33
2022-10-18T15:02:24.000Z,5.19
2022-10-18T15:07:24.000Z,5.1
2022-10-18T15:12:24.000Z,4.98
2022-10-18T15:17:25.000Z,5.33
2022-10-18T15:22:24.000Z,5.5
2022-10-18T15:27:24.000Z,5.03
2022-10-18T15:32:24.000Z,4.7
2022-10-18T15:37:24.000Z,4.65
2022-10-18T15:42:25.000Z,5.08
2022-10-18T15:47:24.000Z,5.15
2022-10-18T15:52:24.000Z,4.84
2022-10-18T15:57:24.000Z,4.73
2022-10-18T16:02:24.000Z,4.65
2022-10-18T16:07:24.000Z,4.66
2022-10-18T16:12:24.000Z,5.11
2022-10-18T16:17:24.000Z,4.69
2022-10-18T16:22:25.000Z,4.62
2022-10-18T16:27:25.000Z,4.24
2022-10-18T16:32:24.000Z,4.6
2022-10-18T16:37:25.000Z,4.46
2022-10-18T16:42:24.000Z,4.78
2022-10-18T16:47:24.000Z,4.57
2022-10-18T16:52:24.000Z,4.63
2022-10-18T16:57:24.000Z,4.26
2022-10-18T17:02:25.000Z,4.64
2022-10-18T17:07:24.000Z,4.86
2022-10-18T17:12:24.000Z,4.59
2022-10-18T17:17:25.000Z,4.4
2022-10-18T17:22:24.000Z,3.91
2022-10-18T17:27:24.000Z,3.64
2022-10-18T17:32:24.000Z,3.77
2022-10-18T17:47:24.000Z,3.58
2022-10-18T17:52:24.000Z,3.88
2022-10-18T17:57:24.000Z,3.8
2022-10-18T18:02:25.000Z,3.47
2022-10-18T18:07:24.000Z,3.85
2022-10-18T18:12:24.000Z,4.4
2022-10-18T18:17:24.000Z,3.97
2022-10-18T18:22:24.000Z,3.71
2022-10-18T18:27:24.000Z,3.54
2022-10-18T18:32:25.000Z,3.75
2022-10-18T18:37:24.000Z,3.72
2022-10-18T18:42:25.000Z,3.74
2022-10-18T18:47:25.000Z,3.48
2022-10-18T18:52:25.000Z,3.77
2022-10-18T18:57:25.000Z,7.11
2022-10-18T19:02:24.000Z,4.97
2022-10-18T19:07:24.000Z,4.94
2022-10-18T19:12:24.000Z,5.01
2022-10-18T19:17:25.000Z,4.7
2022-10-18T19:22:24.000Z,5.43
2022-10-18T19:27:24.000Z,5.26
2022-10-18T19:32:25.000Z,5.42
2022-10-18T19:37:24.000Z,4.93
2022-10-18T19:42:25.000Z,4.79
2022-10-18T19:47:24.000Z,5.04
2022-10-18T19:57:24.000Z,5.61
2022-10-18T20:02:24.000Z,6.05
2022-10-18T20:07:25.000Z,5.9
2022-10-18T20:12:24.000Z,6.25
2022-10-18T20:17:24.000Z,5.93
2022-10-18T20:22:24.000Z,6.49
2022-10-18T20:27:24.000Z,6.7
2022-10-18T20:32:24.000Z,5.98
2022-10-18T20:37:24.000Z,5.29
2022-10-18T20:42:25.000Z,5.68
2022-10-18T20:47:25.000Z,5.62
2022-10-18T20:52:24.000Z,5.7
2022-10-18T20:57:25.000Z,5.11
2022-10-18T21:02:25.000Z,5.12
2022-10-18T21:07:24.000Z,5
2022-10-18T21:12:25.000Z,4.46
2022-10-18T21:22:25.000Z,4.94
2022-10-18T21:27:24.000Z,4.83
2022-10-18T21:37:24.000Z,4.98
2022-10-18T21:42:24.000Z,5.02
2022-10-18T21:47:24.000Z,5.78
2022-10-18T21:52:25.000Z,5.9
2022-10-18T21:57:24.000Z,6.2
2022-10-18T22:02:24.000Z,5.97
2022-10-18T22:07:24.000Z,6.04
2022-10-18T22:12:25.000Z,6.18
2022-10-18T22:17:25.000Z,5.93
2022-10-18T22:22:24.000Z,6.07
2022-10-18T22:27:24.000Z,6.05
2022-10-18T22:32:24.000Z,6.05
2022-10-18T22:37:25.000Z,5.85
2022-10-18T22:42:25.000Z,5.97
2022-10-18T22:47:24.000Z,5.96
2022-10-18T22:52:25.000Z,5.99
2022-10-18T22:57:24.000Z,5.87
2022-10-18T23:02:24.000Z,6.48
2022-10-18T23:07:24.000Z,7.27
2022-10-18T23:12:24.000Z,6.26
2022-10-18T23:17:24.000Z,6.15
2022-10-18T23:22:24.000Z,8.17
2022-10-18T23:27:24.000Z,6.74
2022-10-18T23:32:24.000Z,8.33
2022-10-18T23:37:25.000Z,8.86
2022-10-18T23:42:24.000Z,10.9
2022-10-18T23:47:24.000Z,11.06
2022-10-18T23:52:24.000Z,9.74
2022-10-18T23:57:24.000Z,10.05
